Alexander Valley, California
Current Conditions -  °F | °C
As of 8:53 PM on Wednesday 17 Dec 2014 (Local Time) from KSTS Reporting Station
Light Rain Light Rain  
Wind Chill:   Ceiling: 1800
Heat Index:   Visibility: 4mi
Dew Point:   Wind: 6mph
Humidity: 97%   Direction: 110°ESE
Pressure: 30.04"   Gusts: NA
Location:  38.7422°N, 122.861°W
Report Text: KSTS 180453Z AUTO 11005KT 4SM -RA BR BKN018 OVC025 09/09 A3004 RMK AO2 SLP167 P0003 T00940089
Loading
Personal Weather Stations






























Interactive Weather Map New forecast layout! Learn more

10-Day Weather Forecast

Advertisements
Track Severe Weather on mobile